sensor_id;sensor_type;location;lat;lon;timestamp;pressure;altitude;pressure_sealevel;temperature;humidity
23223;BME280;11780;13.904;100.620;2022-12-13T00:00:37;101292.72;;;28.68;58.57
23223;BME280;11780;13.904;100.620;2022-12-13T00:03:08;101295.72;;;28.72;58.46
23223;BME280;11780;13.904;100.620;2022-12-13T00:05:44;101296.50;;;28.72;58.38
23223;BME280;11780;13.904;100.620;2022-12-13T00:08:14;101297.94;;;28.70;58.43
23223;BME280;11780;13.904;100.620;2022-12-13T00:10:45;101307.53;;;28.72;58.37
23223;BME280;11780;13.904;100.620;2022-12-13T00:13:15;101303.97;;;28.72;58.20
23223;BME280;11780;13.904;100.620;2022-12-13T00:15:57;101306.44;;;28.74;58.15
23223;BME280;11780;13.904;100.620;2022-12-13T00:18:29;101314.16;;;28.71;58.35
23223;BME280;11780;13.904;100.620;2022-12-13T00:21:00;101316.34;;;28.75;58.04
23223;BME280;11780;13.904;100.620;2022-12-13T00:23:33;101315.78;;;28.72;58.12
23223;BME280;11780;13.904;100.620;2022-12-13T00:26:05;101318.25;;;28.74;57.86
23223;BME280;11780;13.904;100.620;2022-12-13T00:28:36;101334.25;;;28.72;57.88
23223;BME280;11780;13.904;100.620;2022-12-13T00:31:08;101330.91;;;28.75;57.71
23223;BME280;11780;13.904;100.620;2022-12-13T00:33:58;101334.19;;;28.77;57.54
23223;BME280;11780;13.904;100.620;2022-12-13T00:36:29;101337.25;;;28.76;57.18
23223;BME280;11780;13.904;100.620;2022-12-13T00:38:59;101336.94;;;28.77;57.18
23223;BME280;11780;13.904;100.620;2022-12-13T00:41:32;101328.75;;;28.72;57.33
23223;BME280;11780;13.904;100.620;2022-12-13T00:44:03;101345.78;;;28.74;57.18
23223;BME280;11780;13.904;100.620;2022-12-13T00:46:34;101349.06;;;28.76;56.99
23223;BME280;11780;13.904;100.620;2022-12-13T00:49:04;101355.69;;;28.75;56.96
23223;BME280;11780;13.904;100.620;2022-12-13T00:51:34;101363.16;;;28.75;56.85
23223;BME280;11780;13.904;100.620;2022-12-13T00:54:04;101363.69;;;28.77;56.62
23223;BME280;11780;13.904;100.620;2022-12-13T00:56:36;101366.44;;;28.77;56.37
23223;BME280;11780;13.904;100.620;2022-12-13T00:59:07;101379.91;;;28.78;56.58
23223;BME280;11780;13.904;100.620;2022-12-13T01:01:37;101377.44;;;28.77;56.27
23223;BME280;11780;13.904;100.620;2022-12-13T01:04:09;101374.69;;;28.77;56.16
23223;BME280;11780;13.904;100.620;2022-12-13T01:06:42;101376.59;;;28.76;56.24
23223;BME280;11780;13.904;100.620;2022-12-13T01:09:19;101382.59;;;28.83;55.89
23223;BME280;11780;13.904;100.620;2022-12-13T01:11:50;101395.84;;;28.81;56.08
23223;BME280;11780;13.904;100.620;2022-12-13T01:14:20;101387.88;;;28.80;55.90
23223;BME280;11780;13.904;100.620;2022-12-13T01:16:50;101392.78;;;28.83;56.16
23223;BME280;11780;13.904;100.620;2022-12-13T01:19:27;101396.38;;;28.83;55.75
23223;BME280;11780;13.904;100.620;2022-12-13T01:22:02;101394.19;;;28.80;55.68
23223;BME280;11780;13.904;100.620;2022-12-13T01:24:33;101400.22;;;28.82;55.65
23223;BME280;11780;13.904;100.620;2022-12-13T01:27:03;101394.41;;;28.84;55.81
23223;BME280;11780;13.904;100.620;2022-12-13T01:29:33;101401.88;;;28.83;55.56
23223;BME280;11780;13.904;100.620;2022-12-13T01:32:03;101403.78;;;28.83;55.55
23223;BME280;11780;13.904;100.620;2022-12-13T01:34:34;101411.25;;;28.82;55.62
23223;BME280;11780;13.904;100.620;2022-12-13T01:37:04;101418.38;;;28.83;55.48
23223;BME280;11780;13.904;100.620;2022-12-13T01:39:34;101416.16;;;28.85;55.52
23223;BME280;11780;13.904;100.620;2022-12-13T01:42:05;101414.22;;;28.86;55.19
23223;BME280;11780;13.904;100.620;2022-12-13T01:47:49;101418.09;;;28.85;55.30
23223;BME280;11780;13.904;100.620;2022-12-13T01:50:57;101421.41;;;28.82;55.23
23223;BME280;11780;13.904;100.620;2022-12-13T01:53:21;101416.22;;;28.80;55.21
23223;BME280;11780;13.904;100.620;2022-12-13T01:55:57;101424.69;;;28.84;55.08
23223;BME280;11780;13.904;100.620;2022-12-13T01:58:31;101431.59;;;28.86;55.22
23223;BME280;11780;13.904;100.620;2022-12-13T02:01:02;101438.41;;;28.89;55.52
23223;BME280;11780;13.904;100.620;2022-12-13T02:03:32;101435.13;;;28.87;55.33
23223;BME280;11780;13.904;100.620;2022-12-13T02:06:39;101436.56;;;28.84;55.43
23223;BME280;11780;13.904;100.620;2022-12-13T02:09:08;101436.25;;;28.86;55.41
23223;BME280;11780;13.904;100.620;2022-12-13T02:11:41;101438.19;;;28.85;55.06
23223;BME280;11780;13.904;100.620;2022-12-13T02:14:12;101431.59;;;28.86;55.17
23223;BME280;11780;13.904;100.620;2022-12-13T02:25:02;101434.84;;;28.89;55.09
23223;BME280;11780;13.904;100.620;2022-12-13T02:34:09;101436.19;;;28.91;55.15
23223;BME280;11780;13.904;100.620;2022-12-13T02:39:34;101438.66;;;28.93;54.68
23223;BME280;11780;13.904;100.620;2022-12-13T02:42:14;101438.94;;;28.91;54.80
23223;BME280;11780;13.904;100.620;2022-12-13T02:44:57;101442.50;;;28.92;54.86
23223;BME280;11780;13.904;100.620;2022-12-13T02:47:30;101447.75;;;28.93;54.67
23223;BME280;11780;13.904;100.620;2022-12-13T02:50:05;101439.75;;;28.92;54.83
23223;BME280;11780;13.904;100.620;2022-12-13T02:52:37;101432.03;;;28.94;54.84
23223;BME280;11780;13.904;100.620;2022-12-13T02:55:12;101434.78;;;28.94;54.78
23223;BME280;11780;13.904;100.620;2022-12-13T02:57:45;101437.25;;;28.95;55.07
23223;BME280;11780;13.904;100.620;2022-12-13T03:00:20;101432.88;;;28.94;55.15
23223;BME280;11780;13.904;100.620;2022-12-13T03:09:08;101434.72;;;28.99;55.11
23223;BME280;11780;13.904;100.620;2022-12-13T03:17:39;101436.66;;;28.98;55.18
23223;BME280;11780;13.904;100.620;2022-12-13T03:20:17;101439.66;;;29.02;54.99
23223;BME280;11780;13.904;100.620;2022-12-13T03:22:52;101436.38;;;29.00;54.63
23223;BME280;11780;13.904;100.620;2022-12-13T03:25:26;101428.69;;;28.97;55.01
23223;BME280;11780;13.904;100.620;2022-12-13T03:28:00;101436.38;;;29.00;54.78
23223;BME280;11780;13.904;100.620;2022-12-13T03:30:32;101433.91;;;28.98;54.77
23223;BME280;11780;13.904;100.620;2022-12-13T03:33:02;101439.66;;;29.02;54.93
23223;BME280;11780;13.904;100.620;2022-12-13T03:35:33;101443.53;;;29.01;54.99
23223;BME280;11780;13.904;100.620;2022-12-13T03:38:14;101444.06;;;29.03;55.00
23223;BME280;11780;13.904;100.620;2022-12-13T03:40:56;101443.75;;;29.05;54.77
23223;BME280;11780;13.904;100.620;2022-12-13T03:43:27;101440.16;;;29.04;54.70
23223;BME280;11780;13.904;100.620;2022-12-13T03:45:59;101436.28;;;29.05;54.85
23223;BME280;11780;13.904;100.620;2022-12-13T03:48:29;101437.13;;;29.06;54.42
23223;BME280;11780;13.904;100.620;2022-12-13T03:51:00;101429.66;;;29.06;54.16
23223;BME280;11780;13.904;100.620;2022-12-13T03:53:31;101423.88;;;29.08;54.29
23223;BME280;11780;13.904;100.620;2022-12-13T03:56:03;101424.16;;;29.06;54.52
23223;BME280;11780;13.904;100.620;2022-12-13T03:58:49;101432.16;;;29.08;54.01
23223;BME280;11780;13.904;100.620;2022-12-13T04:01:20;101420.28;;;29.07;54.52
23223;BME280;11780;13.904;100.620;2022-12-13T04:03:51;101422.47;;;29.10;54.15
23223;BME280;11780;13.904;100.620;2022-12-13T04:06:40;101420.28;;;29.07;54.03
23223;BME280;11780;13.904;100.620;2022-12-13T04:09:10;101426.06;;;29.11;54.16
23223;BME280;11780;13.904;100.620;2022-12-13T04:11:40;101421.66;;;29.10;54.20
23223;BME280;11780;13.904;100.620;2022-12-13T04:14:29;101417.47;;;29.12;54.25
23223;BME280;11780;13.904;100.620;2022-12-13T04:16:59;101415.03;;;29.11;54.01
23223;BME280;11780;13.904;100.620;2022-12-13T04:19:29;101412.78;;;29.13;53.80
23223;BME280;11780;13.904;100.620;2022-12-13T04:22:17;101404.81;;;29.11;53.78
23223;BME280;11780;13.904;100.620;2022-12-13T04:24:51;101407.56;;;29.11;54.04
23223;BME280;11780;13.904;100.620;2022-12-13T04:27:37;101399.84;;;29.13;53.77
23223;BME280;11780;13.904;100.620;2022-12-13T04:30:07;101398.19;;;29.12;53.64
23223;BME280;11780;13.904;100.620;2022-12-13T04:32:38;101391.56;;;29.13;53.58
23223;BME280;11780;13.904;100.620;2022-12-13T04:35:08;101387.41;;;29.16;53.83
23223;BME280;11780;13.904;100.620;2022-12-13T04:37:38;101378.34;;;29.15;53.31
23223;BME280;11780;13.904;100.620;2022-12-13T04:40:10;101379.97;;;29.16;53.83
23223;BME280;11780;13.904;100.620;2022-12-13T04:43:06;101377.75;;;29.19;53.53
23223;BME280;11780;13.904;100.620;2022-12-13T04:45:55;101359.56;;;29.17;53.67
23223;BME280;11780;13.904;100.620;2022-12-13T04:48:43;101360.69;;;29.16;53.17
23223;BME280;11780;13.904;100.620;2022-12-13T04:51:15;101355.19;;;29.16;52.82
23223;BME280;11780;13.904;100.620;2022-12-13T04:53:45;101354.06;;;29.17;53.21
23223;BME280;11780;13.904;100.620;2022-12-13T04:56:15;101359.56;;;29.17;53.22
23223;BME280;11780;13.904;100.620;2022-12-13T04:58:45;101348.56;;;29.17;53.00
23223;BME280;11780;13.904;100.620;2022-12-13T05:01:15;101345.28;;;29.15;53.02
23223;BME280;11780;13.904;100.620;2022-12-13T05:03:45;101339.16;;;29.19;53.03
23223;BME280;11780;13.904;100.620;2022-12-13T05:06:15;101325.41;;;29.19;53.16
23223;BME280;11780;13.904;100.620;2022-12-13T05:08:54;101319.88;;;29.19;53.40
23223;BME280;11780;13.904;100.620;2022-12-13T05:11:28;101317.13;;;29.19;53.37
23223;BME280;11780;13.904;100.620;2022-12-13T05:14:02;101314.88;;;29.21;53.29
23223;BME280;11780;13.904;100.620;2022-12-13T05:16:32;101306.31;;;29.22;52.89
23223;BME280;11780;13.904;100.620;2022-12-13T05:19:02;101311.00;;;29.22;53.42
23223;BME280;11780;13.904;100.620;2022-12-13T05:21:32;101293.34;;;29.23;53.47
23223;BME280;11780;13.904;100.620;2022-12-13T05:24:03;101286.19;;;29.22;52.88
23223;BME280;11780;13.904;100.620;2022-12-13T05:26:35;101279.06;;;29.21;52.75
23223;BME280;11780;13.904;100.620;2022-12-13T05:29:05;101282.66;;;29.21;52.91
23223;BME280;11780;13.904;100.620;2022-12-13T05:31:35;101277.13;;;29.21;52.82
23223;BME280;11780;13.904;100.620;2022-12-13T05:34:05;101267.75;;;29.22;52.94
23223;BME280;11780;13.904;100.620;2022-12-13T05:36:35;101261.41;;;29.22;53.06
23223;BME280;11780;13.904;100.620;2022-12-13T05:39:05;101261.41;;;29.22;52.83
23223;BME280;11780;13.904;100.620;2022-12-13T05:41:57;101250.38;;;29.22;52.74
23223;BME280;11780;13.904;100.620;2022-12-13T05:44:32;101253.38;;;29.25;53.12
23223;BME280;11780;13.904;100.620;2022-12-13T05:47:02;101250.09;;;29.23;52.90
23223;BME280;11780;13.904;100.620;2022-12-13T05:49:32;101244.28;;;29.25;52.82
23223;BME280;11780;13.904;100.620;2022-12-13T05:52:15;101236.03;;;29.25;52.72
23223;BME280;11780;13.904;100.620;2022-12-13T05:55:04;101234.09;;;29.25;53.07
23223;BME280;11780;13.904;100.620;2022-12-13T05:57:35;101232.66;;;29.28;53.28
23223;BME280;11780;13.904;100.620;2022-12-13T06:00:07;101233.78;;;29.27;53.36
23223;BME280;11780;13.904;100.620;2022-12-13T06:02:57;101228.78;;;29.29;53.46
23223;BME280;11780;13.904;100.620;2022-12-13T06:05:43;101218.09;;;29.27;53.12
23223;BME280;11780;13.904;100.620;2022-12-13T06:08:13;101212.56;;;29.27;52.90
23223;BME280;11780;13.904;100.620;2022-12-13T06:10:56;101199.28;;;29.29;52.64
23223;BME280;11780;13.904;100.620;2022-12-13T06:13:40;101205.31;;;29.31;52.63
23223;BME280;11780;13.904;100.620;2022-12-13T06:16:12;101186.34;;;29.30;53.11
23223;BME280;11780;13.904;100.620;2022-12-13T06:19:08;101197.91;;;29.32;53.15
23223;BME280;11780;13.904;100.620;2022-12-13T06:21:38;101195.13;;;29.32;53.23
23223;BME280;11780;13.904;100.620;2022-12-13T06:24:14;101179.19;;;29.29;53.13
23223;BME280;11780;13.904;100.620;2022-12-13T06:26:44;101180.53;;;29.31;52.98
23223;BME280;11780;13.904;100.620;2022-12-13T06:29:17;101182.47;;;29.31;52.84
23223;BME280;11780;13.904;100.620;2022-12-13T06:31:59;101174.72;;;29.33;52.82
23223;BME280;11780;13.904;100.620;2022-12-13T06:34:33;101169.22;;;29.33;52.89
23223;BME280;11780;13.904;100.620;2022-12-13T06:37:05;101168.09;;;29.34;53.30
23223;BME280;11780;13.904;100.620;2022-12-13T06:39:36;101160.94;;;29.33;53.34
23223;BME280;11780;13.904;100.620;2022-12-13T06:42:14;101158.75;;;29.35;53.45
23223;BME280;11780;13.904;100.620;2022-12-13T06:45:07;101158.44;;;29.37;53.11
23223;BME280;11780;13.904;100.620;2022-12-13T06:47:37;101152.59;;;29.38;53.39
23223;BME280;11780;13.904;100.620;2022-12-13T06:50:07;101155.34;;;29.38;53.43
23223;BME280;11780;13.904;100.620;2022-12-13T06:52:38;101149.84;;;29.38;53.21
23223;BME280;11780;13.904;100.620;2022-12-13T06:55:23;101140.47;;;29.39;53.27
23223;BME280;11780;13.904;100.620;2022-12-13T06:57:56;101129.44;;;29.39;53.37
23223;BME280;11780;13.904;100.620;2022-12-13T07:00:26;101129.44;;;29.39;53.09
23223;BME280;11780;13.904;100.620;2022-12-13T07:03:07;101130.78;;;29.42;53.37
23223;BME280;11780;13.904;100.620;2022-12-13T07:05:40;101128.31;;;29.40;53.24
23223;BME280;11780;13.904;100.620;2022-12-13T07:08:10;101116.19;;;29.41;53.35
23223;BME280;11780;13.904;100.620;2022-12-13T07:10:49;101116.19;;;29.41;53.03
23223;BME280;11780;13.904;100.620;2022-12-13T07:13:20;101114.53;;;29.40;53.22
23223;BME280;11780;13.904;100.620;2022-12-13T07:15:51;101114.25;;;29.42;53.41
23223;BME280;11780;13.904;100.620;2022-12-13T07:18:27;101107.91;;;29.41;53.44
23223;BME280;11780;13.904;100.620;2022-12-13T07:20:57;101110.66;;;29.41;53.58
23223;BME280;11780;13.904;100.620;2022-12-13T07:23:28;101106.78;;;29.42;53.73
23223;BME280;11780;13.904;100.620;2022-12-13T07:25:58;101112.81;;;29.44;53.30
23223;BME280;11780;13.904;100.620;2022-12-13T07:28:31;101103.44;;;29.45;53.45
23223;BME280;11780;13.904;100.620;2022-12-13T07:31:04;101110.06;;;29.44;53.17
23223;BME280;11780;13.904;100.620;2022-12-13T07:33:35;101099.84;;;29.45;53.44
23223;BME280;11780;13.904;100.620;2022-12-13T07:36:10;101103.44;;;29.45;53.63
23223;BME280;11780;13.904;100.620;2022-12-13T07:38:41;101099.03;;;29.44;53.39
23223;BME280;11780;13.904;100.620;2022-12-13T07:41:11;101089.66;;;29.45;53.67
23223;BME280;11780;13.904;100.620;2022-12-13T07:43:51;101089.66;;;29.45;53.47
23223;BME280;11780;13.904;100.620;2022-12-13T07:46:23;101088.53;;;29.46;53.78
23223;BME280;11780;13.904;100.620;2022-12-13T07:49:04;101078.03;;;29.49;53.49
23223;BME280;11780;13.904;100.620;2022-12-13T07:51:34;101079.44;;;29.46;53.34
23223;BME280;11780;13.904;100.620;2022-12-13T07:54:05;101073.13;;;29.45;53.54
23223;BME280;11780;13.904;100.620;2022-12-13T07:56:37;101074.75;;;29.46;53.63
23223;BME280;11780;13.904;100.620;2022-12-13T07:59:08;101073.91;;;29.46;53.41
23223;BME280;11780;13.904;100.620;2022-12-13T08:01:39;101073.13;;;29.45;53.69
23223;BME280;11780;13.904;100.620;2022-12-13T08:04:09;101062.91;;;29.46;53.39
23223;BME280;11780;13.904;100.620;2022-12-13T08:06:39;101071.66;;;29.48;53.74
23223;BME280;11780;13.904;100.620;2022-12-13T08:09:10;101060.34;;;29.50;53.90
23223;BME280;11780;13.904;100.620;2022-12-13T08:11:40;101063.13;;;29.50;53.82
23223;BME280;11780;13.904;100.620;2022-12-13T08:14:10;101056.50;;;29.51;53.85
23223;BME280;11780;13.904;100.620;2022-12-13T08:16:40;101065.56;;;29.51;54.02
23223;BME280;11780;13.904;100.620;2022-12-13T08:19:10;101050.66;;;29.52;53.94
23223;BME280;11780;13.904;100.620;2022-12-13T08:21:40;101055.03;;;29.53;54.11
23223;BME280;11780;13.904;100.620;2022-12-13T08:24:29;101055.84;;;29.54;53.84
23223;BME280;11780;13.904;100.620;2022-12-13T08:27:00;101055.03;;;29.53;53.58
23223;BME280;11780;13.904;100.620;2022-12-13T08:29:32;101049.81;;;29.52;53.54
23223;BME280;11780;13.904;100.620;2022-12-13T08:32:06;101054.53;;;29.51;52.96
23223;BME280;11780;13.904;100.620;2022-12-13T08:34:36;101051.47;;;29.53;52.98
23223;BME280;11780;13.904;100.620;2022-12-13T08:37:07;101053.41;;;29.52;53.22
23223;BME280;11780;13.904;100.620;2022-12-13T08:39:38;101053.72;;;29.51;53.14
23223;BME280;11780;13.904;100.620;2022-12-13T08:42:13;101047.69;;;29.49;53.25
23223;BME280;11780;13.904;100.620;2022-12-13T08:44:48;101046.34;;;29.46;53.40
23223;BME280;11780;13.904;100.620;2022-12-13T08:47:21;101057.59;;;29.50;53.15
23223;BME280;11780;13.904;100.620;2022-12-13T08:49:56;101057.81;;;29.53;53.24
23223;BME280;11780;13.904;100.620;2022-12-13T08:52:32;101055.66;;;29.50;53.08
23223;BME280;11780;13.904;100.620;2022-12-13T08:55:12;101056.16;;;29.52;52.95
23223;BME280;11780;13.904;100.620;2022-12-13T08:57:45;101055.03;;;29.53;52.75
23223;BME280;11780;13.904;100.620;2022-12-13T09:00:17;101068.00;;;29.53;52.81
23223;BME280;11780;13.904;100.620;2022-12-13T09:02:48;101069.94;;;29.52;52.67
23223;BME280;11780;13.904;100.620;2022-12-13T09:05:19;101068.81;;;29.53;52.77
23223;BME280;11780;13.904;100.620;2022-12-13T09:08:01;101075.13;;;29.54;52.61
23223;BME280;11780;13.904;100.620;2022-12-13T09:10:59;101061.34;;;29.54;52.39
23223;BME280;11780;13.904;100.620;2022-12-13T09:13:49;101074.63;;;29.52;52.46
23223;BME280;11780;13.904;100.620;2022-12-13T09:16:27;101076.25;;;29.53;52.53
23223;BME280;11780;13.904;100.620;2022-12-13T09:19:04;101077.69;;;29.50;52.54
23223;BME280;11780;13.904;100.620;2022-12-13T09:21:53;101082.91;;;29.52;52.52
23223;BME280;11780;13.904;100.620;2022-12-13T09:24:29;101083.72;;;29.52;52.35
23223;BME280;11780;13.904;100.620;2022-12-13T09:27:04;101090.38;;;29.51;52.30
23223;BME280;11780;13.904;100.620;2022-12-13T09:29:37;101092.00;;;29.52;52.26
23223;BME280;11780;13.904;100.620;2022-12-13T09:32:07;101085.66;;;29.52;52.46
23223;BME280;11780;13.904;100.620;2022-12-13T09:34:37;101088.41;;;29.52;52.46
23223;BME280;11780;13.904;100.620;2022-12-13T09:37:12;101092.81;;;29.53;52.51
23223;BME280;11780;13.904;100.620;2022-12-13T09:39:50;101096.69;;;29.52;52.60
23223;BME280;11780;13.904;100.620;2022-12-13T09:42:24;101100.28;;;29.52;52.24
23223;BME280;11780;13.904;100.620;2022-12-13T09:45:00;101097.50;;;29.52;52.29
23223;BME280;11780;13.904;100.620;2022-12-13T09:47:36;101098.31;;;29.53;52.14
23223;BME280;11780;13.904;100.620;2022-12-13T09:52:52;101106.09;;;29.51;52.82
23223;BME280;11780;13.904;100.620;2022-12-13T09:55:33;101100.88;;;29.49;52.19
23223;BME280;11780;13.904;100.620;2022-12-13T09:58:13;101108.63;;;29.47;52.26
23223;BME280;11780;13.904;100.620;2022-12-13T10:00:46;101112.72;;;29.50;52.55
23223;BME280;11780;13.904;100.620;2022-12-13T10:03:18;101116.91;;;29.47;52.28
23223;BME280;11780;13.904;100.620;2022-12-13T10:05:57;101118.53;;;29.48;52.28
23223;BME280;11780;13.904;100.620;2022-12-13T10:08:34;101119.44;;;29.43;52.09
23223;BME280;11780;13.904;100.620;2022-12-13T10:11:05;101124.34;;;29.46;52.15
23223;BME280;11780;13.904;100.620;2022-12-13T10:13:45;101120.47;;;29.47;52.28
23223;BME280;11780;13.904;100.620;2022-12-13T10:18:50;101134.53;;;29.46;52.18
23223;BME280;11780;13.904;100.620;2022-12-13T10:21:39;101134.53;;;29.46;52.25
23223;BME280;11780;13.904;100.620;2022-12-13T10:24:25;101139.78;;;29.47;52.39
23223;BME280;11780;13.904;100.620;2022-12-13T10:27:15;101148.03;;;29.47;51.91
23223;BME280;11780;13.904;100.620;2022-12-13T10:30:06;101149.69;;;29.49;52.22
23223;BME280;11780;13.904;100.620;2022-12-13T10:35:27;101155.19;;;29.49;51.92
23223;BME280;11780;13.904;100.620;2022-12-13T10:38:24;101153.84;;;29.46;51.83
23223;BME280;11780;13.904;100.620;2022-12-13T10:40:58;101163.47;;;29.49;51.75
23223;BME280;11780;13.904;100.620;2022-12-13T10:43:28;101161.81;;;29.47;51.41
23223;BME280;11780;13.904;100.620;2022-12-13T10:46:00;101159.88;;;29.48;51.20
23223;BME280;11780;13.904;100.620;2022-12-13T10:51:11;101162.63;;;29.48;51.37
23223;BME280;11780;13.904;100.620;2022-12-13T10:53:46;101173.97;;;29.46;51.05
23223;BME280;11780;13.904;100.620;2022-12-13T10:56:18;101175.88;;;29.46;51.22
23223;BME280;11780;13.904;100.620;2022-12-13T10:59:32;101177.53;;;29.47;51.40
23223;BME280;11780;13.904;100.620;2022-12-13T11:02:35;101175.88;;;29.46;51.14
23223;BME280;11780;13.904;100.620;2022-12-13T11:05:27;101189.97;;;29.44;50.97
23223;BME280;11780;13.904;100.620;2022-12-13T11:08:20;101191.91;;;29.44;51.13
23223;BME280;11780;13.904;100.620;2022-12-13T11:11:00;101201.00;;;29.44;51.04
23223;BME280;11780;13.904;100.620;2022-12-13T11:13:43;101200.50;;;29.42;51.24
23223;BME280;11780;13.904;100.620;2022-12-13T11:18:55;101206.53;;;29.44;51.42
23223;BME280;11780;13.904;100.620;2022-12-13T11:21:31;101209.06;;;29.41;51.38
23223;BME280;11780;13.904;100.620;2022-12-13T11:24:06;101213.75;;;29.40;51.61
23223;BME280;11780;13.904;100.620;2022-12-13T11:26:38;101220.91;;;29.41;51.32
23223;BME280;11780;13.904;100.620;2022-12-13T11:32:56;101224.16;;;29.43;51.51
23223;BME280;11780;13.904;100.620;2022-12-13T11:38:30;101230.81;;;29.42;51.23
23223;BME280;11780;13.904;100.620;2022-12-13T11:41:08;101236.09;;;29.39;51.25
23223;BME280;11780;13.904;100.620;2022-12-13T11:44:05;101242.13;;;29.41;50.89
23223;BME280;11780;13.904;100.620;2022-12-13T11:46:45;101243.53;;;29.38;51.17
23223;BME280;11780;13.904;100.620;2022-12-13T11:49:31;101242.13;;;29.41;50.49
23223;BME280;11780;13.904;100.620;2022-12-13T11:52:43;101245.19;;;29.39;50.51
23223;BME280;11780;13.904;100.620;2022-12-13T11:55:34;101249.88;;;29.39;50.74
23223;BME280;11780;13.904;100.620;2022-12-13T12:01:19;101255.41;;;29.39;50.76
23223;BME280;11780;13.904;100.620;2022-12-13T12:07:04;101260.16;;;29.33;50.88
23223;BME280;11780;13.904;100.620;2022-12-13T12:12:51;101269.47;;;29.37;50.74
23223;BME280;11780;13.904;100.620;2022-12-13T12:15:33;101265.66;;;29.33;50.81
23223;BME280;11780;13.904;100.620;2022-12-13T12:18:14;101286.53;;;29.39;50.88
23223;BME280;11780;13.904;100.620;2022-12-13T12:26:17;101292.94;;;29.35;50.63
23223;BME280;11780;13.904;100.620;2022-12-13T12:34:44;101301.25;;;29.29;50.78
23223;BME280;11780;13.904;100.620;2022-12-13T12:43:31;101316.75;;;29.25;50.36
23223;BME280;11780;13.904;100.620;2022-12-13T12:46:05;101320.84;;;29.28;50.38
23223;BME280;11780;13.904;100.620;2022-12-13T12:51:58;101326.34;;;29.28;50.13
23223;BME280;11780;13.904;100.620;2022-12-13T13:10:51;101340.19;;;29.23;49.69
23223;BME280;11780;13.904;100.620;2022-12-13T13:13:52;101341.31;;;29.22;49.67
23223;BME280;11780;13.904;100.620;2022-12-13T13:22:36;101341.03;;;29.23;49.11
23223;BME280;11780;13.904;100.620;2022-12-13T13:25:30;101344.06;;;29.22;49.14
23223;BME280;11780;13.904;100.620;2022-12-13T13:28:21;101341.09;;;29.18;48.92
23223;BME280;11780;13.904;100.620;2022-12-13T13:31:06;101349.06;;;29.20;48.96
23223;BME280;11780;13.904;100.620;2022-12-13T13:36:45;101350.78;;;29.15;49.12
23223;BME280;11780;13.904;100.620;2022-12-13T13:42:14;101342.31;;;29.12;48.98
23223;BME280;11780;13.904;100.620;2022-12-13T14:09:18;101374.34;;;29.02;49.36
23223;BME280;11780;13.904;100.620;2022-12-13T14:27:09;101390.00;;;29.07;49.06
23223;BME280;11780;13.904;100.620;2022-12-13T14:29:42;101388.13;;;29.02;48.82
23223;BME280;11780;13.904;100.620;2022-12-13T14:32:28;101388.97;;;29.03;49.22
23223;BME280;11780;13.904;100.620;2022-12-13T14:34:59;101387.31;;;29.02;49.18
23223;BME280;11780;13.904;100.620;2022-12-13T14:38:04;101387.38;;;28.97;49.26
23223;BME280;11780;13.904;100.620;2022-12-13T14:40:36;101383.88;;;28.91;49.02
23223;BME280;11780;13.904;100.620;2022-12-13T14:43:22;101385.75;;;28.96;49.01
23223;BME280;11780;13.904;100.620;2022-12-13T14:46:01;101385.53;;;28.92;48.80
23223;BME280;11780;13.904;100.620;2022-12-13T14:48:43;101379.75;;;28.89;48.94
23223;BME280;11780;13.904;100.620;2022-12-13T14:51:36;101380.28;;;28.91;49.37
23223;BME280;11780;13.904;100.620;2022-12-13T14:54:18;101376.41;;;28.92;49.32
23223;BME280;11780;13.904;100.620;2022-12-13T14:57:00;101386.53;;;28.96;49.49
23223;BME280;11780;13.904;100.620;2022-12-13T14:59:31;101385.16;;;28.99;49.66
23223;BME280;11780;13.904;100.620;2022-12-13T15:02:04;101380.44;;;28.99;49.86
23223;BME280;11780;13.904;100.620;2022-12-13T15:04:34;101386.50;;;29.01;49.96
23223;BME280;11780;13.904;100.620;2022-12-13T15:07:35;101383.16;;;29.05;49.43
23223;BME280;11780;13.904;100.620;2022-12-13T15:12:52;101384.44;;;29.12;49.53
23223;BME280;11780;13.904;100.620;2022-12-13T15:15:29;101386.06;;;29.13;50.02
23223;BME280;11780;13.904;100.620;2022-12-13T15:18:05;101385.22;;;29.13;49.94
23223;BME280;11780;13.904;100.620;2022-12-13T15:20:44;101390.47;;;29.14;49.51
23223;BME280;11780;13.904;100.620;2022-12-13T15:26:15;101387.72;;;29.14;49.97
23223;BME280;11780;13.904;100.620;2022-12-13T15:28:59;101389.34;;;29.15;49.85
23223;BME280;11780;13.904;100.620;2022-12-13T15:31:38;101391.53;;;29.19;50.51
23223;BME280;11780;13.904;100.620;2022-12-13T15:37:33;101381.53;;;29.23;50.37
23223;BME280;11780;13.904;100.620;2022-12-13T15:40:01;101385.69;;;29.20;50.65
23223;BME280;11780;13.904;100.620;2022-12-13T15:42:36;101387.34;;;29.21;50.60
23223;BME280;11780;13.904;100.620;2022-12-13T15:45:26;101389.88;;;29.17;50.64
23223;BME280;11780;13.904;100.620;2022-12-13T15:48:04;101390.41;;;29.20;50.59
23223;BME280;11780;13.904;100.620;2022-12-13T15:50:37;101384.66;;;29.16;50.37
23223;BME280;11780;13.904;100.620;2022-12-13T15:53:27;101385.47;;;29.16;50.63
23223;BME280;11780;13.904;100.620;2022-12-13T15:55:57;101390.16;;;29.16;50.83